Kezdőlap
METAR-TAF:

METAR-TAF

Repülőterek :

Szingapúr, Szingapúr

földrajzi szélesség: 01-22N, földrajzi hosszúság: 103-55E, magasság: 18 m

Jelenlegi meteorológiai megfigyelések

A jelentés 59 perccel ezelõtt készült, 17:00 UTC
Dél-délkeleti szél 2 kt
Hőmérséklet 27°C
Páratartalom 84%
Légköri nyomás 1010 hPa
Látótávolság 10 km, vagy több
Kevés felhő 1600 lábon
Szórványos felhőzet 28000 lábon

METAR: WSAP 221700Z 15002KT 9999 FEW016 SCT280 27/24 Q1010

Idő: 01:59 (17:59 UTC)

Előrejelzés

A jelentés 59 perccel ezelõtt készült, 17:00 UTC
Az előrejelzés 22-én 18 óra UTC és 24-én 00 óra UTC között érvényes
Déli szél 10 kt
Látótávolság 10 km, vagy több
Kevés felhő 1500 lábon
Szórványos felhőzet 2000 lábon

TAF: WSAP 221700Z 2218/2400 17010KT 9999 FEW015 SCT020

Meteorológiai megfigyelések és előrejelzések több, mint 4000 repülőtéren (METAR és TAF jelentéseket).

A térképen piros és sárga pontok jelzik az elérhető meteorológiai állomásokat.

Mozgassa az egeret a pont fölött, hogy megjelenjen az állomás neve.

Azután kattintson az időjárási megfigyelések és előrejelzések megtekintéséhez.

A térkép megváltoztatása: kattintson a fekete keresztel jelölt zöld gombra ráközelítéshez, a vonallal jelölt zöld gombra távolításhoz, vagy a zöld nyilakra a szomszédos térképek eléréséhez.


METAR-TAF: